Time;durP1;ratioP1;P1;durP2;ratioP2;P2;SDS_P1;SDS_P2;PMS_P1;PMS_P2;Temp;Humidity;BMP_temperature;BMP_pressure;BME280_temperature;BME280_humidity;BME280_pressure;Samples;Min_cycle;Max_cycle;Signal;HPM_P1;HPM_P2
2023/12/21 00:01:19;;;;;;;;;;;;;;;3.39;100.00;96330.56;5065511;28;20168;-69
2023/12/21 00:03:45;;;;;;;;;;;;;;;3.39;100.00;96325.38;5065805;28;19957;-71
2023/12/21 00:06:11;;;;;;;;;;;;;;;3.40;100.00;96329.56;5065574;28;19965;-75
2023/12/21 00:08:37;;;;;;;;;;;;;;;3.41;100.00;96326.00;5065726;28;19960;-75
2023/12/21 00:11:03;;;;;;;;;;;;;;;3.41;100.00;96328.59;5065696;28;19956;-75
2023/12/21 00:13:28;;;;;;;;;;;;;;;3.40;100.00;96317.44;5065872;28;19967;-74
2023/12/21 00:15:54;;;;;;;;;;;;;;;3.39;100.00;96315.81;5065620;28;20027;-74
2023/12/21 00:18:20;;;;;;;;;;;;;;;3.40;100.00;96309.66;5065492;28;19959;-73
2023/12/21 00:20:46;;;;;;;;;;;;;;;3.40;100.00;96317.44;5065451;28;19988;-74
2023/12/21 00:23:12;;;;;;;;;;;;;;;3.43;100.00;96326.66;5065054;28;20113;-76
2023/12/21 00:25:38;;;;;;;;;;;;;;;3.44;100.00;96315.28;5065009;28;19950;-76
2023/12/21 00:28:04;;;;;;;;;;;;;;;3.44;100.00;96313.50;5064212;28;19981;-76
2023/12/21 00:30:29;;;;;;;;;;;;;;;3.44;100.00;96310.91;5064934;28;20018;-77
2023/12/21 00:32:55;;;;;;;;;;;;;;;3.44;100.00;96315.28;5046895;28;20384;-76
2023/12/21 00:35:21;;;;;;;;;;;;;;;3.42;100.00;96302.50;5065394;28;19951;-77
2023/12/21 00:37:47;;;;;;;;;;;;;;;3.42;100.00;96301.69;5064959;28;20019;-76
2023/12/21 00:40:13;;;;;;;;;;;;;;;3.42;100.00;96297.34;5065019;28;19952;-70
2023/12/21 00:42:41;;;;;;;;;;;;;;;3.42;100.00;96307.69;5065115;28;19977;-74
2023/12/21 00:45:07;;;;;;;;;;;;;;;3.43;100.00;96295.53;5065124;28;19957;-72
2023/12/21 00:47:33;;;;;;;;;;;;;;;3.43;100.00;96288.56;5064893;28;20137;-72
2023/12/21 00:49:59;;;;;;;;;;;;;;;3.44;100.00;96279.81;5064485;28;19939;-73
2023/12/21 00:52:25;;;;;;;;;;;;;;;3.45;100.00;96286.59;5064914;28;19958;-73
2023/12/21 00:54:51;;;;;;;;;;;;;;;3.45;100.00;96293.56;5064647;28;20036;-73
2023/12/21 00:57:17;;;;;;;;;;;;;;;3.44;100.00;96287.59;5064859;28;19954;-72
2023/12/21 00:59:43;;;;;;;;;;;;;;;3.44;100.00;96289.34;5064472;28;19961;-74
2023/12/21 01:02:08;;;;;;;;;;;;;;;3.46;100.00;96277.03;5064680;28;19964;-74
2023/12/21 01:04:34;;;;;;;;;;;;;;;3.47;100.00;96273.47;5064396;28;19955;-74
2023/12/21 01:07:01;;;;;;;;;;;;;;;3.49;100.00;96274.09;5064090;28;19966;-74
2023/12/21 01:09:27;;;;;;;;;;;;;;;3.49;100.00;96258.53;5064599;28;20248;-74
2023/12/21 01:11:53;;;;;;;;;;;;;;;3.49;100.00;96261.13;5064467;28;19959;-75
2023/12/21 01:14:18;;;;;;;;;;;;;;;3.49;100.00;96258.53;5064730;28;20285;-75
2023/12/21 01:16:44;;;;;;;;;;;;;;;3.51;100.00;96248.78;5064582;28;19954;-70
2023/12/21 01:19:10;;;;;;;;;;;;;;;3.53;100.00;96238.22;5064573;28;19955;-73
2023/12/21 01:21:37;;;;;;;;;;;;;;;3.55;100.00;96239.69;5064465;28;19991;-70
2023/12/21 01:24:03;;;;;;;;;;;;;;;3.55;100.00;96237.09;5064076;28;19958;-70
2023/12/21 01:26:29;;;;;;;;;;;;;;;3.57;100.00;96231.69;5063942;28;19961;-69
2023/12/21 01:28:55;;;;;;;;;;;;;;;3.57;100.00;96229.94;5064006;28;19964;-69
2023/12/21 01:31:21;;;;;;;;;;;;;;;3.58;100.00;96244.50;5064105;28;19964;-69
2023/12/21 01:33:47;;;;;;;;;;;;;;;3.60;100.00;96250.31;5064287;28;19951;-70
2023/12/21 01:36:12;;;;;;;;;;;;;;;3.62;100.00;96243.16;5063889;28;20017;-71
2023/12/21 01:38:38;;;;;;;;;;;;;;;3.62;100.00;96237.97;5064320;28;20016;-74
2023/12/21 01:41:04;;;;;;;;;;;;;;;3.63;100.00;96237.00;5064089;28;19977;-74
2023/12/21 01:43:30;;;;;;;;;;;;;;;3.64;100.00;96230.03;5064324;28;20020;-74
2023/12/21 01:45:58;;;;;;;;;;;;;;;3.65;100.00;96244.56;5063677;28;19962;-74
2023/12/21 01:48:24;;;;;;;;;;;;;;;3.65;100.00;96248.00;5064045;28;19963;-75
2023/12/21 01:50:50;;;;;;;;;;;;;;;3.66;100.00;96254.78;5064202;28;19951;-75
2023/12/21 01:53:16;;;;;;;;;;;;;;;3.66;100.00;96254.78;5063936;28;19954;-71
2023/12/21 01:55:42;;;;;;;;;;;;;;;3.68;100.00;96244.25;5064161;28;20032;-71
2023/12/21 01:58:09;;;;;;;;;;;;;;;3.69;100.00;96235.47;5063766;28;19966;-71
2023/12/21 02:00:35;;;;;;;;;;;;;;;3.70;100.00;96231.91;5064171;28;19950;-71
2023/12/21 02:03:01;;;;;;;;;;;;;;;3.69;100.00;96224.28;5063792;28;19956;-71
2023/12/21 02:05:27;;;;;;;;;;;;;;;3.66;100.00;96221.06;5063899;28;20066;-71
2023/12/21 02:07:53;;;;;;;;;;;;;;;3.65;100.00;96209.09;5063957;28;19971;-72
2023/12/21 02:10:19;;;;;;;;;;;;;;;3.68;100.00;96220.91;5064038;28;19953;-71
2023/12/21 02:12:44;;;;;;;;;;;;;;;3.68;100.00;96220.09;5064089;28;20168;-73
2023/12/21 02:15:10;;;;;;;;;;;;;;;3.66;100.00;96212.50;5066837;28;19952;-75
2023/12/21 02:17:37;;;;;;;;;;;;;;;3.68;100.00;96202.75;5067836;28;19956;-75
2023/12/21 02:20:05;;;;;;;;;;;;;;;3.68;100.00;96199.34;5067840;28;19941;-75
2023/12/21 02:22:33;;;;;;;;;;;;;;;3.68;100.00;96194.97;5067959;28;19957;-76
2023/12/21 02:24:59;;;;;;;;;;;;;;;3.70;100.00;96194.78;5050097;28;19952;-76
2023/12/21 02:27:25;;;;;;;;;;;;;;;3.71;100.00;96198.97;5067787;28;20279;-76
2023/12/21 02:29:50;;;;;;;;;;;;;;;3.72;100.00;96198.81;5067324;28;20015;-76
2023/12/21 02:32:16;;;;;;;;;;;;;;;3.72;100.00;96193.63;5067353;28;19960;-72
2023/12/21 02:34:42;;;;;;;;;;;;;;;3.72;100.00;96190.22;5067707;28;19959;-70
2023/12/21 02:37:08;;;;;;;;;;;;;;;3.75;100.00;96179.47;5067318;28;19955;-70
2023/12/21 02:39:34;;;;;;;;;;;;;;;3.76;100.00;96174.13;5067391;28;20076;-70
2023/12/21 02:42:00;;;;;;;;;;;;;;;3.78;100.00;96173.91;5067422;28;19983;-70
2023/12/21 02:44:26;;;;;;;;;;;;;;;3.77;100.00;96167.94;5067399;28;20140;-69
2023/12/21 02:46:51;;;;;;;;;;;;;;;3.77;100.00;96167.94;5067147;28;19951;-70
2023/12/21 02:49:17;;;;;;;;;;;;;;;3.77;100.00;96162.75;5066764;28;20016;-72
2023/12/21 02:51:43;;;;;;;;;;;;;;;3.77;100.00;96154.97;5067278;28;19957;-74
2023/12/21 02:54:09;;;;;;;;;;;;;;;3.78;100.00;96140.19;5066854;28;20046;-76
2023/12/21 02:56:35;;;;;;;;;;;;;;;3.77;100.00;96131.63;5067261;28;20024;-75
2023/12/21 02:59:00;;;;;;;;;;;;;;;3.77;100.00;96134.22;5067285;28;19955;-76
2023/12/21 03:01:26;;;;;;;;;;;;;;;3.77;100.00;96120.44;5066837;28;19961;-75
2023/12/21 03:03:54;;;;;;;;;;;;;;;3.79;100.00;96106.31;5066729;28;19958;-76
2023/12/21 03:06:20;;;;;;;;;;;;;;;3.77;100.00;96104.91;5066937;28;20244;-76
2023/12/21 03:08:46;;;;;;;;;;;;;;;3.76;100.00;96091.13;5066814;28;20039;-76
2023/12/21 03:11:11;;;;;;;;;;;;;;;3.77;100.00;96079.75;5066847;28;19961;-71
2023/12/21 03:13:37;;;;;;;;;;;;;;;3.78;100.00;96070.19;5066829;28;20166;-71
2023/12/21 03:16:06;;;;;;;;;;;;;;;3.78;100.00;96065.81;5048787;28;20149;-71
2023/12/21 03:18:32;;;;;;;;;;;;;;;3.78;100.00;96081.38;5066187;28;19950;-72
2023/12/21 03:20:58;;;;;;;;;;;;;;;3.78;100.00;96076.19;5066213;28;19956;-71
2023/12/21 03:23:24;;;;;;;;;;;;;;;3.80;100.00;96082.00;5066632;28;19961;-71
2023/12/21 03:25:50;;;;;;;;;;;;;;;3.81;100.00;96075.81;5066692;28;19956;-70
2023/12/21 03:28:16;;;;;;;;;;;;;;;3.83;100.00;96068.66;5065983;28;19968;-69
2023/12/21 03:30:43;;;;;;;;;;;;;;;3.84;100.00;96065.06;5066240;28;20021;-72
2023/12/21 03:33:09;;;;;;;;;;;;;;;3.87;100.00;96058.72;5066640;28;19952;-71
2023/12/21 03:35:35;;;;;;;;;;;;;;;3.89;100.00;96064.53;5066252;28;19996;-71
2023/12/21 03:38:00;;;;;;;;;;;;;;;3.90;100.00;96062.72;5066042;28;19957;-71
2023/12/21 03:40:26;;;;;;;;;;;;;;;3.90;100.00;96060.91;5066298;28;19986;-71
2023/12/21 03:42:52;;;;;;;;;;;;;;;3.91;100.00;96036.59;5066292;28;20065;-70
2023/12/21 03:45:19;;;;;;;;;;;;;;;3.92;100.00;96030.41;5066366;28;20025;-68
2023/12/21 03:47:45;;;;;;;;;;;;;;;3.91;100.00;96021.03;5065548;28;19963;-73
2023/12/21 03:50:11;;;;;;;;;;;;;;;3.92;100.00;96025.22;5065727;28;19958;-73
2023/12/21 03:52:37;;;;;;;;;;;;;;;3.93;100.00;96032.03;5066346;28;19950;-73
2023/12/21 03:55:03;;;;;;;;;;;;;;;3.94;100.00;96041.41;5065651;28;19976;-73
2023/12/21 03:57:29;;;;;;;;;;;;;;;3.96;100.00;96052.41;5065969;28;19966;-74
2023/12/21 03:59:55;;;;;;;;;;;;;;;3.97;100.00;96041.06;5065647;28;20246;-73
2023/12/21 04:02:21;;;;;;;;;;;;;;;3.98;100.00;96036.66;5066034;28;19951;-70
2023/12/21 04:04:47;;;;;;;;;;;;;;;3.97;100.00;96020.28;5065715;28;20125;-75
2023/12/21 04:07:17;;;;;;;;;;;;;;;3.99;100.00;96020.91;5064037;28;19966;-70
2023/12/21 04:09:43;;;;;;;;;;;;;;;4.01;100.00;96012.91;5065646;28;20035;-70
2023/12/21 04:12:09;;;;;;;;;;;;;;;3.99;100.00;96027.88;5064827;28;19964;-70
2023/12/21 04:14:34;;;;;;;;;;;;;;;4.00;100.00;96032.09;5065643;28;19961;-70
2023/12/21 04:17:00;;;;;;;;;;;;;;;4.02;100.00;96024.91;5065052;28;19940;-70
2023/12/21 04:19:26;;;;;;;;;;;;;;;4.01;100.00;96026.72;5065847;28;19961;-70
2023/12/21 04:21:52;;;;;;;;;;;;;;;4.03;100.00;96013.53;5065794;28;19953;-74
2023/12/21 04:24:18;;;;;;;;;;;;;;;4.02;100.00;96010.16;5065126;28;19961;-75
2023/12/21 04:26:44;;;;;;;;;;;;;;;4.02;100.00;96007.56;5065153;28;19950;-75
2023/12/21 04:29:10;;;;;;;;;;;;;;;4.03;100.00;95995.38;5065135;28;19969;-76
2023/12/21 04:31:37;;;;;;;;;;;;;;;4.04;100.00;96000.38;5065049;28;19962;-75
2023/12/21 04:34:03;;;;;;;;;;;;;;;4.04;100.00;95978.84;5065073;28;19957;-75
2023/12/21 04:36:29;;;;;;;;;;;;;;;4.05;100.00;95990.81;5064368;28;19952;-76
2023/12/21 04:38:55;;;;;;;;;;;;;;;4.04;100.00;95990.00;5065290;28;20008;-69
2023/12/21 04:41:21;;;;;;;;;;;;;;;4.04;100.00;95991.81;5065199;28;19952;-74
2023/12/21 04:43:47;;;;;;;;;;;;;;;4.05;100.00;95981.25;5065187;28;19967;-75
2023/12/21 04:46:13;;;;;;;;;;;;;;;4.05;100.00;95983.00;5064479;28;19958;-74
2023/12/21 04:48:38;;;;;;;;;;;;;;;4.06;100.00;95984.63;5064535;28;19956;-75
2023/12/21 04:51:05;;;;;;;;;;;;;;;4.06;100.00;95958.69;5064559;28;20128;-75
2023/12/21 04:53:31;;;;;;;;;;;;;;;4.05;100.00;95963.09;5065171;28;19957;-75
2023/12/21 04:55:57;;;;;;;;;;;;;;;4.05;100.00;95978.66;5064820;28;19990;-76
2023/12/21 04:58:23;;;;;;;;;;;;;;;4.05;100.00;95976.06;5065009;28;19951;-68
2023/12/21 05:00:50;;;;;;;;;;;;;;;4.06;100.00;95977.66;5064545;28;19994;-75
2023/12/21 05:03:19;;;;;;;;;;;;;;;4.09;100.00;95971.28;5064592;28;19950;-75
2023/12/21 05:05:46;;;;;;;;;;;;;;;4.10;100.00;95953.94;5064723;28;19977;-74
2023/12/21 05:08:12;;;;;;;;;;;;;;;4.09;100.00;95960.91;5064484;28;19960;-75
2023/12/21 05:10:38;;;;;;;;;;;;;;;4.10;100.00;95952.13;5064569;28;19962;-74
2023/12/21 05:13:04;;;;;;;;;;;;;;;4.10;100.00;95941.75;5064572;28;19960;-75
2023/12/21 05:15:30;;;;;;;;;;;;;;;4.12;100.00;95946.75;5064017;28;19965;-75
2023/12/21 05:17:56;;;;;;;;;;;;;;;4.12;100.00;95946.75;5064547;28;19974;-67
2023/12/21 05:20:21;;;;;;;;;;;;;;;4.11;100.00;95947.75;5064511;28;19962;-75
2023/12/21 05:22:47;;;;;;;;;;;;;;;4.11;100.00;95951.13;5064322;28;20273;-75
2023/12/21 05:25:16;;;;;;;;;;;;;;;4.12;100.00;95951.97;5064142;28;19951;-75
2023/12/21 05:27:42;;;;;;;;;;;;;;;4.11;100.00;95952.94;5064292;28;20111;-77
2023/12/21 05:30:08;;;;;;;;;;;;;;;4.13;100.00;95945.75;5064363;28;19992;-75
2023/12/21 05:32:34;;;;;;;;;;;;;;;4.13;100.00;95938.78;5064176;28;20239;-75
2023/12/21 05:35:00;;;;;;;;;;;;;;;4.14;100.00;95939.59;5064400;28;20020;-69
2023/12/21 05:37:26;;;;;;;;;;;;;;;4.14;100.00;95919.63;5064278;28;19957;-72
2023/12/21 05:39:52;;;;;;;;;;;;;;;4.13;100.00;95925.78;5064355;28;19953;-72
2023/12/21 05:42:18;;;;;;;;;;;;;;;4.14;100.00;95911.84;5062887;28;19962;-71
2023/12/21 05:44:43;;;;;;;;;;;;;;;4.14;100.00;95917.03;5063612;28;19972;-71
2023/12/21 05:47:09;;;;;;;;;;;;;;;4.14;100.00;95914.44;5064414;28;20291;-72
2023/12/21 05:49:35;;;;;;;;;;;;;;;4.12;100.00;95911.22;5066707;28;19969;-72
2023/12/21 05:52:01;;;;;;;;;;;;;;;4.13;100.00;95893.88;5068008;28;19960;-71
2023/12/21 05:54:27;;;;;;;;;;;;;;;4.13;100.00;95891.25;5067984;28;19967;-73
2023/12/21 05:56:53;;;;;;;;;;;;;;;4.12;100.00;95900.06;5067175;28;20248;-69
2023/12/21 05:59:19;;;;;;;;;;;;;;;4.11;100.00;95899.22;5067925;28;20004;-69
2023/12/21 06:01:45;;;;;;;;;;;;;;;4.11;100.00;95896.63;5067948;28;19954;-69
2023/12/21 06:04:11;;;;;;;;;;;;;;;4.13;100.00;95893.88;5068254;28;19960;-69
2023/12/21 06:06:37;;;;;;;;;;;;;;;4.11;100.00;95894.03;5068187;28;19961;-69
2023/12/21 06:09:04;;;;;;;;;;;;;;;4.12;100.00;95894.88;5067877;28;19962;-68
2023/12/21 06:11:30;;;;;;;;;;;;;;;4.12;100.00;95887.09;5067999;28;19947;-70
2023/12/21 06:13:56;;;;;;;;;;;;;;;4.13;100.00;95891.25;5067963;28;19985;-71
2023/12/21 06:16:22;;;;;;;;;;;;;;;4.13;100.00;95881.69;5068131;28;20005;-69
2023/12/21 06:18:49;;;;;;;;;;;;;;;4.16;100.00;95875.31;5068280;28;20011;-70
2023/12/21 06:21:14;;;;;;;;;;;;;;;4.15;100.00;95871.91;5067842;28;19956;-69
2023/12/21 06:23:40;;;;;;;;;;;;;;;4.17;100.00;95880.31;5067627;28;20237;-69
2023/12/21 06:26:06;;;;;;;;;;;;;;;4.20;100.00;95866.97;5067419;28;19950;-69
2023/12/21 06:28:32;;;;;;;;;;;;;;;4.22;100.00;95871.94;5067363;28;19969;-69
2023/12/21 06:30:58;;;;;;;;;;;;;;;4.25;100.00;95871.56;5065998;28;19953;-73
2023/12/21 06:33:23;;;;;;;;;;;;;;;4.26;100.00;95836.81;5067578;28;20033;-73
2023/12/21 06:35:49;;;;;;;;;;;;;;;4.27;100.00;95834.03;5067363;28;19987;-73
2023/12/21 06:38:15;;;;;;;;;;;;;;;4.27;100.00;95831.44;5067440;28;20309;-72
2023/12/21 06:40:41;;;;;;;;;;;;;;;4.27;100.00;95826.25;5067554;28;19956;-72
2023/12/21 06:43:07;;;;;;;;;;;;;;;4.29;100.00;95820.88;5067305;28;19963;-73
2023/12/21 06:45:33;;;;;;;;;;;;;;;4.29;100.00;95813.09;5067644;28;19953;-72
2023/12/21 06:48:02;;;;;;;;;;;;;;;4.29;100.00;95813.09;5066826;28;19990;-69
2023/12/21 06:50:28;;;;;;;;;;;;;;;4.31;100.00;95800.72;5067574;28;19961;-73
2023/12/21 06:52:53;;;;;;;;;;;;;;;4.32;100.00;95801.53;5067047;28;19966;-71
2023/12/21 06:55:19;;;;;;;;;;;;;;;4.31;100.00;95805.91;5066832;28;19955;-71
2023/12/21 06:57:45;;;;;;;;;;;;;;;4.32;100.00;95804.13;5066784;28;19954;-71
2023/12/21 07:00:11;;;;;;;;;;;;;;;4.32;100.00;95806.72;5066362;28;20133;-72
2023/12/21 07:02:37;;;;;;;;;;;;;;;4.33;100.00;95800.53;5067083;28;20121;-71
2023/12/21 07:05:05;;;;;;;;;;;;;;;4.35;100.00;95788.16;5066133;28;20358;-71
2023/12/21 07:07:30;;;;;;;;;;;;;;;4.35;100.00;95791.56;5066813;28;19960;-70
2023/12/21 07:09:56;;;;;;;;;;;;;;;4.36;100.00;95789.75;5066264;28;20139;-69
2023/12/21 07:12:24;;;;;;;;;;;;;;;4.40;100.00;95801.34;5066898;28;20263;-70
2023/12/21 07:14:50;;;;;;;;;;;;;;;4.41;100.00;95793.38;5066761;28;19941;-70
2023/12/21 07:17:16;;;;;;;;;;;;;;;4.45;100.00;95796.38;5066227;28;20016;-70
2023/12/21 07:19:42;;;;;;;;;;;;;;;4.48;100.00;95780.41;5066550;28;20017;-70
2023/12/21 07:22:08;;;;;;;;;;;;;;;4.52;100.00;95770.44;5066507;28;19961;-69
2023/12/21 07:24:33;;;;;;;;;;;;;;;4.54;100.00;95761.47;5066585;28;19958;-75
2023/12/21 07:26:59;;;;;;;;;;;;;;;4.59;100.00;95758.25;5066340;28;19954;-71
2023/12/21 07:29:25;;;;;;;;;;;;;;;4.62;100.00;95757.84;5066213;28;20035;-75
2023/12/21 07:31:51;;;;;;;;;;;;;;;4.65;100.00;95752.28;5066218;28;19995;-75
2023/12/21 07:34:17;;;;;;;;;;;;;;;4.68;100.00;95738.88;5066418;28;19963;-75
2023/12/21 07:36:43;;;;;;;;;;;;;;;4.71;100.00;95719.53;5066284;28;20261;-77
2023/12/21 07:39:09;;;;;;;;;;;;;;;4.71;100.00;95719.53;5065742;28;20027;-74
2023/12/21 07:41:34;;;;;;;;;;;;;;;4.71;100.00;95728.13;5066396;28;20044;-75
2023/12/21 07:44:01;;;;;;;;;;;;;;;4.73;100.00;95730.53;5066158;28;20020;-70
2023/12/21 07:46:26;;;;;;;;;;;;;;;4.71;100.00;95728.13;5065814;28;19938;-70
2023/12/21 07:48:53;;;;;;;;;;;;;;;4.72;100.00;95727.09;5065647;28;19973;-71
2023/12/21 07:51:18;;;;;;;;;;;;;;;4.74;100.00;95732.91;5066106;28;20157;-71
2023/12/21 07:53:44;;;;;;;;;;;;;;;4.76;100.00;95737.91;5065732;28;19963;-72
2023/12/21 07:56:10;;;;;;;;;;;;;;;4.76;100.00;95732.72;5065659;28;19964;-71
2023/12/21 07:58:36;;;;;;;;;;;;;;;4.76;100.00;95743.91;5065692;28;19982;-71
2023/12/21 08:01:02;;;;;;;;;;;;;;;4.78;100.00;95739.31;5066058;28;20168;-71
2023/12/21 08:03:28;;;;;;;;;;;;;;;4.79;100.00;95740.91;5066266;28;19942;-72
2023/12/21 08:05:55;;;;;;;;;;;;;;;4.82;100.00;95726.72;5065933;28;19954;-71
2023/12/21 08:08:20;;;;;;;;;;;;;;;4.82;100.00;95732.72;5065809;28;20144;-71
2023/12/21 08:10:47;;;;;;;;;;;;;;;4.84;100.00;95724.72;5065216;28;19958;-73
2023/12/21 08:13:16;;;;;;;;;;;;;;;4.84;100.00;95725.53;5065400;28;20276;-72
2023/12/21 08:15:41;;;;;;;;;;;;;;;4.84;100.00;95733.31;5065580;28;20209;-71
2023/12/21 08:18:09;;;;;;;;;;;;;;;4.86;100.00;95722.72;5065164;28;19959;-71
2023/12/21 08:20:36;;;;;;;;;;;;;;;4.85;100.00;95727.13;5064840;28;19963;-74
2023/12/21 08:23:03;;;;;;;;;;;;;;;4.86;100.00;95735.72;5047688;28;20259;-69
2023/12/21 08:25:31;;;;;;;;;;;;;;;4.85;100.00;95734.94;5065210;28;20220;-71
2023/12/21 08:27:58;;;;;;;;;;;;;;;4.87;100.00;95732.13;5065038;28;19956;-71
2023/12/21 08:30:24;;;;;;;;;;;;;;;4.88;100.00;95728.53;5064460;28;19956;-71
2023/12/21 08:32:49;;;;;;;;;;;;;;;4.88;100.00;95721.53;5065185;28;20007;-71
2023/12/21 08:35:15;;;;;;;;;;;;;;;4.90;100.00;95691.97;5065153;28;19966;-71
2023/12/21 08:37:41;;;;;;;;;;;;;;;4.91;100.00;95696.16;5065135;28;20006;-71
2023/12/21 08:40:07;;;;;;;;;;;;;;;4.91;100.00;95685.75;5065095;28;20249;-72
2023/12/21 08:42:33;;;;;;;;;;;;;;;4.99;100.00;95675.16;5065091;28;19956;-73
2023/12/21 08:45:03;;;;;;;;;;;;;;;5.31;100.00;95689.09;5064971;28;19988;-74
2023/12/21 08:47:29;;;;;;;;;;;;;;;5.62;100.00;95672.03;5064639;28;19957;-73
2023/12/21 08:50:00;;;;;;;;;;;;;;;5.88;100.00;95666.72;5064602;28;19973;-73
2023/12/21 08:52:26;;;;;;;;;;;;;;;5.90;100.00;95677.72;5064941;28;19967;-71
2023/12/21 08:54:52;;;;;;;;;;;;;;;5.74;100.00;95683.41;5064578;28;19970;-71
2023/12/21 08:57:21;;;;;;;;;;;;;;;5.62;100.00;95695.44;5064646;28;19953;-74
2023/12/21 08:59:47;;;;;;;;;;;;;;;5.52;100.00;95701.06;5064603;28;20120;-73
2023/12/21 09:02:13;;;;;;;;;;;;;;;5.42;100.00;95698.09;5064652;28;19958;-73
2023/12/21 09:04:39;;;;;;;;;;;;;;;5.35;100.00;95685.09;5064746;28;19958;-73
2023/12/21 09:07:05;;;;;;;;;;;;;;;5.28;100.00;95664.31;5064658;28;19997;-73
2023/12/21 09:09:31;;;;;;;;;;;;;;;5.26;100.00;95655.13;5064559;28;19958;-73
2023/12/21 09:11:57;;;;;;;;;;;;;;;5.24;100.00;95668.31;5064596;28;19956;-73
2023/12/21 09:14:24;;;;;;;;;;;;;;;5.28;100.00;95666.13;5064064;28;20012;-73
2023/12/21 09:16:51;;;;;;;;;;;;;;;5.27;100.00;95667.94;5064620;28;19951;-73
2023/12/21 09:19:17;;;;;;;;;;;;;;;5.26;100.00;95673.31;5064230;28;19959;-70
2023/12/21 09:21:43;;;;;;;;;;;;;;;5.26;100.00;95670.72;5064629;28;19964;-70
2023/12/21 09:24:09;;;;;;;;;;;;;;;5.27;100.00;95664.50;5063711;28;20030;-70
2023/12/21 09:26:35;;;;;;;;;;;;;;;5.28;100.00;95655.72;5064258;28;19964;-70
2023/12/21 09:29:04;;;;;;;;;;;;;;;5.31;100.00;95644.13;5064160;28;19977;-70
2023/12/21 09:31:30;;;;;;;;;;;;;;;5.32;100.00;95632.72;5064329;28;19958;-69
2023/12/21 09:33:56;;;;;;;;;;;;;;;5.33;100.00;95627.31;5064458;28;20258;-74
2023/12/21 09:36:23;;;;;;;;;;;;;;;5.34;100.00;95621.13;5064414;28;20020;-66
2023/12/21 09:38:48;;;;;;;;;;;;;;;5.37;100.00;95627.69;5064185;28;20153;-71
2023/12/21 09:41:14;;;;;;;;;;;;;;;5.41;100.00;95634.88;5063776;28;19937;-71
2023/12/21 09:43:41;;;;;;;;;;;;;;;5.44;100.00;95631.88;5063773;28;19960;-71
2023/12/21 09:46:08;;;;;;;;;;;;;;;5.46;100.00;95616.88;5064238;28;19962;-71
2023/12/21 09:48:36;;;;;;;;;;;;;;;5.49;100.00;95613.06;5063534;28;20267;-71
2023/12/21 09:51:04;;;;;;;;;;;;;;;5.50;100.00;95606.84;5063943;28;19950;-71
2023/12/21 09:53:30;;;;;;;;;;;;;;;5.52;100.00;95609.25;5063572;28;19961;-73
2023/12/21 09:55:57;;;;;;;;;;;;;;;5.54;100.00;95604.63;5063935;28;19960;-73
2023/12/21 09:58:23;;;;;;;;;;;;;;;5.56;100.00;95613.81;5063933;28;20254;-73
2023/12/21 10:00:49;;;;;;;;;;;;;;;5.58;100.00;95609.22;5063971;28;19956;-73
2023/12/21 10:03:16;;;;;;;;;;;;;;;5.61;100.00;95601.00;5063469;28;19994;-73
2023/12/21 10:05:42;;;;;;;;;;;;;;;5.63;100.00;95573.00;5063998;28;20036;-73
2023/12/21 10:08:09;;;;;;;;;;;;;;;5.65;100.00;95573.59;5063268;28;19966;-73
2023/12/21 10:10:37;;;;;;;;;;;;;;;5.67;100.00;95589.00;5063761;28;19963;-75
2023/12/21 10:13:04;;;;;;;;;;;;;;;5.69;100.00;95584.34;5064050;28;19960;-71
2023/12/21 10:15:35;;;;;;;;;;;;;;;5.70;100.00;95594.56;5063921;28;19956;-69
2023/12/21 10:18:04;;;;;;;;;;;;;;;5.72;100.00;95588.38;5064026;28;19963;-70
2023/12/21 10:20:30;;;;;;;;;;;;;;;5.72;100.00;95580.56;5063612;28;20149;-70
2023/12/21 10:22:56;;;;;;;;;;;;;;;5.73;100.00;95576.94;5063674;28;19960;-70
2023/12/21 10:25:22;;;;;;;;;;;;;;;5.73;100.00;95575.13;5063761;28;19968;-70
2023/12/21 10:27:52;;;;;;;;;;;;;;;5.74;100.00;95562.94;5063760;28;19956;-70
2023/12/21 10:30:19;;;;;;;;;;;;;;;5.72;100.00;95557.94;5063718;28;20152;-71
2023/12/21 10:32:45;;;;;;;;;;;;;;;5.72;100.00;95534.53;5063148;28;19972;-71
2023/12/21 10:35:11;;;;;;;;;;;;;;;5.73;100.00;95543.91;5064995;28;19939;-71
2023/12/21 10:37:39;;;;;;;;;;;;;;;5.74;100.00;95536.94;5066985;28;19960;-71
2023/12/21 10:40:05;;;;;;;;;;;;;;;5.75;100.00;95531.50;5067506;28;19958;-71
2023/12/21 10:42:31;;;;;;;;;;;;;;;5.74;100.00;95522.09;5067146;28;20135;-72
2023/12/21 10:44:57;;;;;;;;;;;;;;;5.75;100.00;95500.28;5066978;28;20001;-72
2023/12/21 10:47:23;;;;;;;;;;;;;;;5.76;100.00;95496.69;5066768;28;20157;-71
2023/12/21 10:49:50;;;;;;;;;;;;;;;5.76;100.00;95488.88;5067144;28;19964;-74
2023/12/21 10:52:17;;;;;;;;;;;;;;;5.76;100.00;95491.47;5067242;28;19957;-72
2023/12/21 10:54:44;;;;;;;;;;;;;;;5.75;100.00;95468.28;5067073;28;19948;-71
2023/12/21 10:57:10;;;;;;;;;;;;;;;5.74;100.00;95448.47;5066997;28;20022;-71
2023/12/21 10:59:37;;;;;;;;;;;;;;;5.74;100.00;95444.06;5066240;28;19962;-71
2023/12/21 11:02:03;;;;;;;;;;;;;;;5.74;100.00;95438.06;5066998;28;19955;-71
2023/12/21 11:04:30;;;;;;;;;;;;;;;5.74;100.00;95410.25;5066953;28;19943;-70
2023/12/21 11:06:57;;;;;;;;;;;;;;;5.77;100.00;95411.63;5066911;28;19954;-72
2023/12/21 11:09:25;;;;;;;;;;;;;;;5.76;100.00;95410.84;5066467;28;19965;-70
2023/12/21 11:11:57;;;;;;;;;;;;;;;5.79;100.00;95401.81;5066843;28;19955;-69
2023/12/21 11:14:23;;;;;;;;;;;;;;;5.82;100.00;95399.59;5066885;28;19979;-69
2023/12/21 11:16:53;;;;;;;;;;;;;;;5.84;100.00;95387.16;5066169;28;19959;-70
2023/12/21 11:19:25;;;;;;;;;;;;;;;5.87;100.00;95380.72;5066566;28;19954;-70
2023/12/21 11:21:51;;;;;;;;;;;;;;;5.87;100.00;95378.91;5066621;28;19982;-70
2023/12/21 11:24:23;;;;;;;;;;;;;;;5.90;100.00;95372.50;5066564;28;20285;-70
2023/12/21 11:26:50;;;;;;;;;;;;;;;5.94;100.00;95370.25;5066561;28;19963;-73
2023/12/21 11:29:21;;;;;;;;;;;;;;;5.96;100.00;95361.25;5066710;28;20131;-71
2023/12/21 11:31:47;;;;;;;;;;;;;;;5.98;100.00;95361.03;5066450;28;19958;-72
2023/12/21 11:34:21;;;;;;;;;;;;;;;6.00;100.00;95349.38;5066364;28;19952;-71
2023/12/21 11:36:58;;;;;;;;;;;;;;;6.02;100.00;95347.38;5066004;28;19986;-71
2023/12/21 11:39:24;;;;;;;;;;;;;;;6.06;100.00;95338.13;5066291;28;19956;-71
2023/12/21 11:41:57;;;;;;;;;;;;;;;6.09;100.00;95326.50;5066106;28;19957;-71
2023/12/21 11:44:24;;;;;;;;;;;;;;;6.14;100.00;95318.81;5066192;28;19962;-71
2023/12/21 11:46:55;;;;;;;;;;;;;;;6.16;100.00;95329.03;5065668;28;19961;-74
2023/12/21 11:49:23;;;;;;;;;;;;;;;6.18;100.00;95304.38;5048091;28;20279;-74
2023/12/21 11:51:50;;;;;;;;;;;;;;;6.21;100.00;95298.72;5065595;28;19963;-74
2023/12/21 11:54:22;;;;;;;;;;;;;;;6.23;100.00;95291.47;5065703;28;19960;-74
2023/12/21 11:57:08;;;;;;;;;;;;;;;6.25;100.00;95279.03;5065986;28;20165;-74
2023/12/21 11:59:34;;;;;;;;;;;;;;;6.28;100.00;95263.00;5066064;28;19962;-74
2023/12/21 12:02:00;;;;;;;;;;;;;;;6.32;100.00;95271.19;5065719;28;19972;-67
2023/12/21 12:04:26;;;;;;;;;;;;;;;6.35;100.00;95267.31;5065914;28;19963;-71
2023/12/21 12:06:52;;;;;;;;;;;;;;;6.40;100.00;95257.81;5065742;28;19966;-71
2023/12/21 12:09:19;;;;;;;;;;;;;;;6.44;100.00;95256.38;5065649;28;20151;-71
2023/12/21 12:11:45;;;;;;;;;;;;;;;6.47;100.00;95255.16;5065732;28;19964;-71
2023/12/21 12:14:11;;;;;;;;;;;;;;;6.50;100.00;95254.69;5065870;28;19948;-71
2023/12/21 12:16:37;;;;;;;;;;;;;;;6.53;100.00;95232.63;5065684;28;19961;-71
2023/12/21 12:19:03;;;;;;;;;;;;;;;6.54;100.00;95229.00;5065203;28;19954;-74
2023/12/21 12:21:32;;;;;;;;;;;;;;;6.55;100.00;95201.94;5065451;28;19951;-74
2023/12/21 12:23:58;;;;;;;;;;;;;;;6.55;100.00;95202.75;5065103;28;19966;-74
2023/12/21 12:26:24;;;;;;;;;;;;;;;6.55;100.00;95192.34;5065342;28;20234;-74
2023/12/21 12:28:53;;;;;;;;;;;;;;;6.55;100.00;95201.94;5065148;28;19951;-74
2023/12/21 12:31:19;;;;;;;;;;;;;;;6.56;100.00;95200.94;5065174;28;19964;-73
2023/12/21 12:33:47;;;;;;;;;;;;;;;6.57;100.00;95199.91;5047365;28;20143;-73
2023/12/21 12:36:15;;;;;;;;;;;;;;;6.58;100.00;95193.69;5065191;28;20236;-73
2023/12/21 12:38:42;;;;;;;;;;;;;;;6.59;100.00;95201.25;5047227;28;19957;-73
2023/12/21 12:41:08;;;;;;;;;;;;;;;6.59;100.00;95190.84;5065062;28;19955;-74
2023/12/21 12:43:34;;;;;;;;;;;;;;;6.60;100.00;95181.25;5065388;28;20008;-76